createdAt,value
2023-02-23T00:00:04.967Z,95185
2023-02-23T00:01:14.604Z,95186
2023-02-23T00:02:23.341Z,95190
2023-02-23T00:03:31.013Z,95186
2023-02-23T00:04:39.644Z,95183
2023-02-23T00:05:49.296Z,95182
2023-02-23T00:06:56.973Z,95184
2023-02-23T00:08:06.613Z,95184
2023-02-23T00:09:16.276Z,95183
2023-02-23T00:10:25.934Z,95185
2023-02-23T00:11:34.590Z,95183
2023-02-23T00:12:43.258Z,95184
2023-02-23T00:13:51.917Z,95181
2023-02-23T00:15:01.589Z,95189
2023-02-23T00:16:11.238Z,95186
2023-02-23T00:17:18.896Z,95184
2023-02-23T00:18:28.559Z,95181
2023-02-23T00:19:36.200Z,95188
2023-02-23T00:20:44.846Z,95185
2023-02-23T00:21:53.518Z,95181
2023-02-23T00:23:02.200Z,95184
2023-02-23T00:24:11.853Z,95181
2023-02-23T00:25:20.535Z,95182
2023-02-23T00:26:30.231Z,95183
2023-02-23T00:27:39.924Z,95186
2023-02-23T00:28:47.566Z,95187
2023-02-23T00:29:57.227Z,95186
2023-02-23T00:31:06.919Z,95187
2023-02-23T00:32:16.654Z,95190
2023-02-23T00:33:25.391Z,95183
2023-02-23T00:34:35.069Z,95189
2023-02-23T00:35:44.712Z,95186
2023-02-23T00:36:54.715Z,95189
2023-02-23T00:38:03.061Z,95189
2023-02-23T00:39:14.552Z,95188
2023-02-23T00:40:23.232Z,95190
2023-02-23T00:41:31.875Z,95187
2023-02-23T00:42:41.569Z,95191
2023-02-23T00:43:49.221Z,95189
2023-02-23T00:44:57.863Z,95187
2023-02-23T00:46:07.586Z,95187
2023-02-23T00:47:15.193Z,95190
2023-02-23T00:48:23.841Z,95187
2023-02-23T00:49:33.510Z,95185
2023-02-23T00:50:43.165Z,95187
2023-02-23T00:51:52.828Z,95190
2023-02-23T00:53:00.516Z,95190
2023-02-23T00:54:10.169Z,95187
2023-02-23T00:55:19.833Z,95189
2023-02-23T00:56:28.468Z,95187
2023-02-23T00:57:39.109Z,95186
2023-02-23T00:58:47.791Z,95184
2023-02-23T00:59:55.437Z,95183
2023-02-23T01:01:04.164Z,95181
2023-02-23T01:02:12.762Z,95181
2023-02-23T01:03:22.483Z,95184
2023-02-23T01:04:32.110Z,95179
2023-02-23T01:05:40.776Z,95182
2023-02-23T01:06:50.428Z,95181
2023-02-23T01:07:59.118Z,95181
2023-02-23T01:09:08.769Z,95185
2023-02-23T01:10:17.429Z,95185
2023-02-23T01:11:26.078Z,95188
2023-02-23T01:12:35.741Z,95182
2023-02-23T01:13:44.420Z,95185
2023-02-23T01:14:54.066Z,95186
2023-02-23T01:16:03.781Z,95183
2023-02-23T01:17:12.392Z,95181
2023-02-23T01:18:21.071Z,95186
2023-02-23T01:19:29.756Z,95184
2023-02-23T01:20:40.352Z,95185
2023-02-23T01:21:49.039Z,95186
2023-02-23T01:22:58.708Z,95189
2023-02-23T01:24:08.411Z,95187
2023-02-23T01:25:18.103Z,95187
2023-02-23T01:26:26.761Z,95186
2023-02-23T01:27:36.439Z,95192
2023-02-23T01:28:46.127Z,95188
2023-02-23T01:29:54.784Z,95192
2023-02-23T01:31:04.535Z,95192
2023-02-23T01:32:13.243Z,95191
2023-02-23T01:33:22.812Z,95193
2023-02-23T01:34:32.524Z,95191
2023-02-23T01:35:42.169Z,95195
2023-02-23T01:36:50.827Z,95189
2023-02-23T01:38:00.521Z,95191
2023-02-23T01:39:09.200Z,95190
2023-02-23T01:40:18.862Z,95186
2023-02-23T01:41:25.503Z,95184
2023-02-23T01:42:34.149Z,95185
2023-02-23T01:43:43.843Z,95184
2023-02-23T01:44:52.525Z,95182
2023-02-23T01:46:02.225Z,95179
2023-02-23T01:47:10.854Z,95179
2023-02-23T01:48:19.514Z,95179
2023-02-23T01:49:29.213Z,95180
2023-02-23T01:50:37.873Z,95178
2023-02-23T01:51:47.518Z,95178
2023-02-23T01:52:57.164Z,95175
2023-02-23T01:54:06.867Z,95181
2023-02-23T01:55:15.514Z,95177
2023-02-23T01:56:23.172Z,95183
2023-02-23T01:57:31.815Z,95180
2023-02-23T01:58:41.471Z,95186
2023-02-23T01:59:51.165Z,95179
2023-02-23T02:00:59.801Z,95184
2023-02-23T02:02:09.485Z,95182
2023-02-23T02:03:17.135Z,95180
2023-02-23T02:04:25.857Z,95179
2023-02-23T02:05:35.495Z,95180
2023-02-23T02:06:45.188Z,95180
2023-02-23T02:07:54.829Z,95179
2023-02-23T02:09:03.595Z,95179
2023-02-23T02:10:13.304Z,95184
2023-02-23T02:11:22.922Z,95177
2023-02-23T02:12:31.625Z,95176
2023-02-23T02:13:42.242Z,95173
2023-02-23T02:14:50.923Z,95171
2023-02-23T02:15:59.625Z,95170
2023-02-23T02:17:09.242Z,95170
2023-02-23T02:18:17.896Z,95169
2023-02-23T02:19:27.571Z,95163
2023-02-23T02:20:37.225Z,95165
2023-02-23T02:21:45.882Z,95162
2023-02-23T02:22:54.558Z,95161
2023-02-23T02:24:04.177Z,95161
2023-02-23T02:25:13.888Z,95157
2023-02-23T02:26:23.537Z,95160
2023-02-23T02:27:32.199Z,95159
2023-02-23T02:28:41.853Z,95156
2023-02-23T02:29:51.547Z,95156
2023-02-23T02:31:00.268Z,95153
2023-02-23T02:32:09.953Z,95152
2023-02-23T02:33:18.531Z,95154
2023-02-23T02:34:27.220Z,95150
2023-02-23T02:35:36.874Z,95151
2023-02-23T02:36:44.549Z,95152
2023-02-23T02:37:54.209Z,95150
2023-02-23T02:39:03.912Z,95151
2023-02-23T02:40:13.584Z,95154
2023-02-23T02:41:23.243Z,95155
2023-02-23T02:42:31.909Z,95157
2023-02-23T02:43:41.582Z,95158
2023-02-23T02:44:51.350Z,95157
2023-02-23T02:45:59.004Z,95155
2023-02-23T02:47:06.659Z,95155
2023-02-23T02:48:16.337Z,95162
2023-02-23T02:49:24.983Z,95154
2023-02-23T02:50:33.711Z,95154
2023-02-23T02:51:42.423Z,95154
2023-02-23T02:52:50.070Z,95156
2023-02-23T02:53:58.769Z,95158
2023-02-23T02:55:07.457Z,95157
2023-02-23T02:56:17.098Z,95158
2023-02-23T02:57:24.752Z,95160
2023-02-23T02:58:33.408Z,95156
2023-02-23T02:59:43.096Z,95159
2023-02-23T03:00:52.743Z,95157
2023-02-23T03:02:02.404Z,95157
2023-02-23T03:03:11.071Z,95152
2023-02-23T03:04:19.745Z,95155
2023-02-23T03:05:29.491Z,95158
2023-02-23T03:06:37.118Z,95154
2023-02-23T03:07:45.761Z,95153
2023-02-23T03:08:55.439Z,95152
2023-02-23T03:10:04.127Z,95148
2023-02-23T03:11:13.809Z,95152
2023-02-23T03:12:23.443Z,95151
2023-02-23T03:13:32.087Z,95152
2023-02-23T03:14:41.765Z,95152
2023-02-23T03:15:50.424Z,95156
2023-02-23T03:17:00.062Z,95155
2023-02-23T03:18:09.756Z,95158
2023-02-23T03:19:17.428Z,95159
2023-02-23T03:20:27.110Z,95160
2023-02-23T03:21:35.774Z,95155
2023-02-23T03:22:44.429Z,95159
2023-02-23T03:23:54.096Z,95166
2023-02-23T03:25:02.788Z,95162
2023-02-23T03:26:12.449Z,95159
2023-02-23T03:27:22.164Z,95159
2023-02-23T03:28:31.819Z,95159
2023-02-23T03:29:40.505Z,95155
2023-02-23T03:30:49.278Z,95155
2023-02-23T03:31:58.044Z,95155
2023-02-23T03:33:07.591Z,95157
2023-02-23T03:34:16.255Z,95158
2023-02-23T03:35:24.921Z,95155
2023-02-23T03:36:34.587Z,95158
2023-02-23T03:37:43.252Z,95161
2023-02-23T03:38:52.919Z,95166
2023-02-23T03:40:02.602Z,95169
2023-02-23T03:41:12.280Z,95170
2023-02-23T03:42:21.942Z,95170
2023-02-23T03:43:29.709Z,95167
2023-02-23T03:44:38.279Z,95169
2023-02-23T03:45:48.096Z,95171
2023-02-23T03:46:55.696Z,95172
2023-02-23T03:48:04.344Z,95168
2023-02-23T03:49:13.008Z,95170
2023-02-23T03:50:21.674Z,95164
2023-02-23T03:51:31.359Z,95162
2023-02-23T03:52:40.028Z,95163
2023-02-23T03:53:48.667Z,95158
2023-02-23T03:54:58.327Z,95164
2023-02-23T03:56:07.017Z,95168
2023-02-23T03:57:16.672Z,95165
2023-02-23T03:58:25.378Z,95170
2023-02-23T03:59:35.064Z,95173
2023-02-23T04:00:44.759Z,95176
2023-02-23T04:01:53.459Z,95185
2023-02-23T04:03:03.126Z,95184
2023-02-23T04:04:12.841Z,95183
2023-02-23T04:05:20.566Z,95187
2023-02-23T04:06:29.245Z,95188
2023-02-23T04:07:37.938Z,95191
2023-02-23T04:08:46.568Z,95187
2023-02-23T04:09:56.228Z,95187
2023-02-23T04:11:03.888Z,95186
2023-02-23T04:12:13.543Z,95185
2023-02-23T04:13:23.181Z,95185
2023-02-23T04:14:31.831Z,95181
2023-02-23T04:15:40.556Z,95179
2023-02-23T04:16:50.257Z,95181
2023-02-23T04:17:59.845Z,95179
2023-02-23T04:19:09.491Z,95175
2023-02-23T04:20:17.161Z,95170
2023-02-23T04:21:25.870Z,95172
2023-02-23T04:22:35.557Z,95170
2023-02-23T04:23:44.274Z,95173
2023-02-23T04:24:51.948Z,95172
2023-02-23T04:26:00.649Z,95170
2023-02-23T04:27:09.288Z,95169
2023-02-23T04:28:18.985Z,95175
2023-02-23T04:29:27.678Z,95176
2023-02-23T04:30:36.352Z,95178
2023-02-23T04:31:46.250Z,95181
2023-02-23T04:32:55.681Z,95178
2023-02-23T04:34:05.360Z,95181
2023-02-23T04:35:15.021Z,95176
2023-02-23T04:36:24.739Z,95180
2023-02-23T04:37:34.392Z,95181
2023-02-23T04:38:43.054Z,95180
2023-02-23T04:39:51.724Z,95183
2023-02-23T04:41:01.397Z,95182
2023-02-23T04:42:09.063Z,95182
2023-02-23T04:43:18.752Z,95181
2023-02-23T04:44:28.429Z,95184
2023-02-23T04:45:38.138Z,95186
2023-02-23T04:46:47.935Z,95183
2023-02-23T04:47:57.450Z,95182
2023-02-23T04:49:07.111Z,95184
2023-02-23T04:50:16.785Z,95184
2023-02-23T04:51:25.494Z,95186
2023-02-23T04:52:35.192Z,95190
2023-02-23T04:53:43.827Z,95190
2023-02-23T04:54:52.559Z,95187
2023-02-23T04:56:01.197Z,95192
2023-02-23T04:57:10.880Z,95187
2023-02-23T04:58:20.585Z,95188
2023-02-23T04:59:28.245Z,95191
2023-02-23T05:00:36.902Z,95190
2023-02-23T05:01:46.617Z,95192
2023-02-23T05:02:55.308Z,95191
2023-02-23T05:04:03.945Z,95189
2023-02-23T05:05:13.654Z,95186
2023-02-23T05:06:23.314Z,95185
2023-02-23T05:07:33.081Z,95188
2023-02-23T05:08:41.742Z,95191
2023-02-23T05:09:50.431Z,95183
2023-02-23T05:11:00.099Z,95186
2023-02-23T05:12:08.795Z,95189
2023-02-23T05:13:18.444Z,95189
2023-02-23T05:14:28.139Z,95189
2023-02-23T05:15:36.829Z,95185
2023-02-23T05:16:46.508Z,95185
2023-02-23T05:17:54.211Z,95189
2023-02-23T05:19:02.902Z,95185
2023-02-23T05:20:12.580Z,95188
2023-02-23T05:21:22.244Z,95183
2023-02-23T05:22:30.929Z,95187
2023-02-23T05:23:40.597Z,95185
2023-02-23T05:24:50.287Z,95186
2023-02-23T05:26:00.948Z,95183
2023-02-23T05:27:08.632Z,95184
2023-02-23T05:28:18.310Z,95184
2023-02-23T05:29:27.973Z,95185
2023-02-23T05:30:36.704Z,95188
2023-02-23T05:31:45.429Z,95189
2023-02-23T05:32:53.009Z,95191
2023-02-23T05:34:01.678Z,95191
2023-02-23T05:35:11.348Z,95188
2023-02-23T05:36:21.011Z,95194
2023-02-23T05:37:29.797Z,95191
2023-02-23T05:38:39.444Z,95192
2023-02-23T05:39:48.091Z,95196
2023-02-23T05:40:57.768Z,95194
2023-02-23T05:42:07.435Z,95192
2023-02-23T05:43:17.140Z,95192
2023-02-23T05:44:26.842Z,95192
2023-02-23T05:45:34.496Z,95190
2023-02-23T05:46:43.147Z,95193
2023-02-23T05:47:52.837Z,95190
2023-02-23T05:49:00.481Z,95193
2023-02-23T05:50:09.149Z,95193
2023-02-23T05:51:18.318Z,95192
2023-02-23T05:52:26.541Z,95189
2023-02-23T05:53:36.202Z,95191
2023-02-23T05:54:44.878Z,95191
2023-02-23T05:55:53.544Z,95190
2023-02-23T05:57:03.213Z,95197
2023-02-23T05:58:10.900Z,95197
2023-02-23T05:59:19.575Z,95196
2023-02-23T06:00:28.269Z,95199
2023-02-23T06:01:37.954Z,95197
2023-02-23T06:02:47.698Z,95199
2023-02-23T06:03:56.492Z,95197
2023-02-23T06:05:06.023Z,95200
2023-02-23T06:06:15.683Z,95198
2023-02-23T06:07:23.383Z,95204
2023-02-23T06:08:32.056Z,95198
2023-02-23T06:09:44.096Z,95194
2023-02-23T06:10:50.372Z,95202
2023-02-23T06:12:00.051Z,95202
2023-02-23T06:13:07.725Z,95202
2023-02-23T06:14:16.356Z,95201
2023-02-23T06:15:26.021Z,95199
2023-02-23T06:16:34.738Z,95205
2023-02-23T06:17:44.386Z,95203
2023-02-23T06:18:52.050Z,95209
2023-02-23T06:20:01.739Z,95206
2023-02-23T06:21:11.436Z,95207
2023-02-23T06:22:20.098Z,95209
2023-02-23T06:23:29.825Z,95204
2023-02-23T06:24:39.471Z,95206
2023-02-23T06:25:49.134Z,95206
2023-02-23T06:26:56.821Z,95204
2023-02-23T06:28:05.507Z,95205
2023-02-23T06:29:15.200Z,95210
2023-02-23T06:30:24.911Z,95212
2023-02-23T06:31:33.731Z,95208
2023-02-23T06:32:42.219Z,95216
2023-02-23T06:33:51.914Z,95216
2023-02-23T06:35:00.578Z,95218
2023-02-23T06:36:10.272Z,95222
2023-02-23T06:37:19.968Z,95221
2023-02-23T06:38:28.663Z,95222
2023-02-23T06:39:38.562Z,95229
2023-02-23T06:40:48.061Z,95227
2023-02-23T06:41:57.744Z,95230
2023-02-23T06:43:07.450Z,95230
2023-02-23T06:44:16.129Z,95231
2023-02-23T06:45:24.834Z,95235
2023-02-23T06:46:33.629Z,95236
2023-02-23T06:47:43.227Z,95236
2023-02-23T06:48:52.981Z,95235
2023-02-23T06:50:02.671Z,95239
2023-02-23T06:51:12.381Z,95238
2023-02-23T06:52:20.066Z,95237
2023-02-23T06:53:29.798Z,95236
2023-02-23T06:54:39.452Z,95243
2023-02-23T06:55:47.168Z,95239
2023-02-23T06:56:56.860Z,95241
2023-02-23T06:58:05.608Z,95237
2023-02-23T06:59:15.302Z,95243
2023-02-23T07:00:24.979Z,95242
2023-02-23T07:01:32.731Z,95242
2023-02-23T07:02:41.350Z,95241
2023-02-23T07:03:51.138Z,95241
2023-02-23T07:04:59.807Z,95244
2023-02-23T07:06:09.497Z,95243
2023-02-23T07:07:18.165Z,95244
2023-02-23T07:08:27.862Z,95241
2023-02-23T07:09:37.560Z,95247
2023-02-23T07:10:46.262Z,95249
2023-02-23T07:11:53.998Z,95249
2023-02-23T07:13:03.676Z,95249
2023-02-23T07:14:21.400Z,95243
2023-02-23T07:15:24.022Z,95241
2023-02-23T07:16:32.740Z,95244
2023-02-23T07:17:42.380Z,95246
2023-02-23T07:18:52.065Z,95244
2023-02-23T07:20:00.791Z,95246
2023-02-23T07:21:09.462Z,95243
2023-02-23T07:22:19.156Z,95247
2023-02-23T07:23:25.846Z,95244
2023-02-23T07:24:34.561Z,95248
2023-02-23T07:25:44.266Z,95247
2023-02-23T07:26:53.489Z,95247
2023-02-23T07:28:03.353Z,95246
2023-02-23T07:29:13.033Z,95245
2023-02-23T07:30:21.774Z,95247
2023-02-23T07:31:31.572Z,95246
2023-02-23T07:32:39.306Z,95245
2023-02-23T07:33:48.066Z,95248
2023-02-23T07:34:56.879Z,95250
2023-02-23T07:36:06.636Z,95245
2023-02-23T07:37:16.313Z,95246
2023-02-23T07:38:25.049Z,95246
2023-02-23T07:39:33.745Z,95242
2023-02-23T07:40:43.436Z,95241
2023-02-23T07:41:52.154Z,95241
2023-02-23T07:43:00.878Z,95239
2023-02-23T07:44:09.722Z,95246
2023-02-23T07:45:18.370Z,95245
2023-02-23T07:46:28.042Z,95243
2023-02-23T07:47:36.716Z,95246
2023-02-23T07:48:46.385Z,95246
2023-02-23T07:49:56.132Z,95245
2023-02-23T07:51:03.886Z,95248
2023-02-23T07:52:13.551Z,95251
2023-02-23T07:53:23.235Z,95249
2023-02-23T07:54:32.006Z,95248
2023-02-23T07:55:41.654Z,95251
2023-02-23T07:56:49.352Z,95250
2023-02-23T07:57:58.054Z,95248
2023-02-23T07:59:08.895Z,95251
2023-02-23T08:00:18.668Z,95252
2023-02-23T08:01:27.412Z,95253
2023-02-23T08:02:36.109Z,95257
2023-02-23T08:03:45.883Z,95254
2023-02-23T08:04:55.604Z,95258
2023-02-23T08:06:04.318Z,95257
2023-02-23T08:07:13.015Z,95253
2023-02-23T08:08:22.750Z,95251
2023-02-23T08:09:31.529Z,95259
2023-02-23T08:10:41.208Z,95257
2023-02-23T08:11:50.914Z,95262
2023-02-23T08:13:00.631Z,95260
2023-02-23T08:14:10.389Z,95263
2023-02-23T08:15:19.040Z,95258
2023-02-23T08:16:27.840Z,95262
2023-02-23T08:17:37.376Z,95263
2023-02-23T08:18:46.072Z,95260
2023-02-23T08:19:55.757Z,95264
2023-02-23T08:21:04.418Z,95265
2023-02-23T08:22:13.149Z,95264
2023-02-23T08:23:22.853Z,95266
2023-02-23T08:24:31.600Z,95264
2023-02-23T08:25:41.327Z,95269
2023-02-23T08:26:51.080Z,95269
2023-02-23T08:27:59.780Z,95268
2023-02-23T08:29:08.461Z,95261
2023-02-23T08:30:17.221Z,95261
2023-02-23T08:31:26.034Z,95256
2023-02-23T08:32:35.725Z,95260
2023-02-23T08:33:45.316Z,95262
2023-02-23T08:34:54.042Z,95258
2023-02-23T08:36:03.728Z,95263
2023-02-23T08:37:12.408Z,95261
2023-02-23T08:38:22.152Z,95260
2023-02-23T08:39:30.857Z,95260
2023-02-23T08:40:39.538Z,95260
2023-02-23T08:41:49.272Z,95258
2023-02-23T08:42:58.912Z,95259
2023-02-23T08:44:07.578Z,95258
2023-02-23T08:45:17.266Z,95263
2023-02-23T08:46:25.984Z,95265
2023-02-23T08:47:35.642Z,95263
2023-02-23T08:48:43.327Z,95263
2023-02-23T08:49:53.129Z,95260
2023-02-23T08:51:01.657Z,95259
2023-02-23T08:52:10.310Z,95255
2023-02-23T08:53:20.030Z,95255
2023-02-23T08:54:27.732Z,95262
2023-02-23T08:55:37.460Z,95257
2023-02-23T08:56:47.137Z,95255
2023-02-23T08:57:55.806Z,95258
2023-02-23T08:59:05.523Z,95262
2023-02-23T09:00:14.442Z,95260
2023-02-23T09:01:23.071Z,95258
2023-02-23T09:02:32.587Z,95262
2023-02-23T09:03:41.263Z,95260
2023-02-23T09:04:49.946Z,95263
2023-02-23T09:05:59.720Z,95260
2023-02-23T09:07:08.455Z,95264
2023-02-23T09:08:18.244Z,95268
2023-02-23T09:09:27.114Z,95266
2023-02-23T09:10:36.916Z,95265
2023-02-23T09:11:46.689Z,95263
2023-02-23T09:12:55.355Z,95266
2023-02-23T09:14:04.036Z,95262
2023-02-23T09:15:13.774Z,95267
2023-02-23T09:16:21.502Z,95264
2023-02-23T09:17:31.077Z,95266
2023-02-23T09:18:40.737Z,95268
2023-02-23T09:19:49.387Z,95266
2023-02-23T09:20:59.097Z,95266
2023-02-23T09:22:08.777Z,95274
2023-02-23T09:23:17.545Z,95274
2023-02-23T09:24:27.238Z,95269
2023-02-23T09:25:36.001Z,95269
2023-02-23T09:26:46.029Z,95267
2023-02-23T09:27:55.334Z,95273
2023-02-23T09:29:03.997Z,95268
2023-02-23T09:30:13.720Z,95271
2023-02-23T09:31:22.797Z,95271
2023-02-23T09:32:31.224Z,95274
2023-02-23T09:33:40.754Z,95271
2023-02-23T09:34:50.446Z,95269
2023-02-23T09:35:59.180Z,95277
2023-02-23T09:37:08.889Z,95268
2023-02-23T09:38:17.606Z,95272
2023-02-23T09:39:37.542Z,95273
2023-02-23T09:40:37.936Z,95272
2023-02-23T09:41:46.580Z,95274
2023-02-23T09:42:56.260Z,95275
2023-02-23T09:44:05.927Z,95277
2023-02-23T09:45:15.673Z,95272
2023-02-23T09:46:24.363Z,95269
2023-02-23T09:47:33.007Z,95274
2023-02-23T09:48:42.652Z,95272
2023-02-23T09:49:51.398Z,95273
2023-02-23T09:51:00.080Z,95273
2023-02-23T09:52:09.796Z,95278
2023-02-23T09:53:17.458Z,95280
2023-02-23T09:54:26.114Z,95274
2023-02-23T09:55:35.825Z,95279
2023-02-23T09:56:45.481Z,95278
2023-02-23T09:57:54.146Z,95276
2023-02-23T09:59:02.812Z,95279
2023-02-23T10:00:12.484Z,95280
2023-02-23T10:01:22.558Z,95283
2023-02-23T10:02:30.836Z,95283
2023-02-23T10:03:40.541Z,95283
2023-02-23T10:04:50.305Z,95281
2023-02-23T10:05:59.910Z,95283
2023-02-23T10:07:09.596Z,95285
2023-02-23T10:08:18.327Z,95286
2023-02-23T10:09:26.959Z,95286
2023-02-23T10:10:36.637Z,95285
2023-02-23T10:11:46.404Z,95285
2023-02-23T10:12:56.032Z,95281
2023-02-23T10:14:04.723Z,95277
2023-02-23T10:15:13.428Z,95279
2023-02-23T10:16:22.140Z,95275
2023-02-23T10:17:29.806Z,95278
2023-02-23T10:18:46.374Z,95280
2023-02-23T10:19:50.108Z,95278
2023-02-23T10:20:58.854Z,95280
2023-02-23T10:22:07.503Z,95278
2023-02-23T10:23:16.155Z,95281
2023-02-23T10:24:25.023Z,95278
2023-02-23T10:25:34.856Z,95279
2023-02-23T10:26:44.592Z,95280
2023-02-23T10:27:53.347Z,95275
2023-02-23T10:29:03.053Z,95279
2023-02-23T10:30:10.728Z,95277
2023-02-23T10:31:19.769Z,95276
2023-02-23T10:32:28.252Z,95279
2023-02-23T10:33:36.853Z,95280
2023-02-23T10:34:46.522Z,95282
2023-02-23T10:36:07.318Z,95275
2023-02-23T10:37:04.932Z,95280
2023-02-23T10:38:14.654Z,95278
2023-02-23T10:39:22.360Z,95274
2023-02-23T10:40:31.044Z,95276
2023-02-23T10:41:39.746Z,95274
2023-02-23T10:42:49.420Z,95277
2023-02-23T10:44:07.861Z,95270
2023-02-23T10:45:09.697Z,95277
2023-02-23T10:46:19.524Z,95274
2023-02-23T10:47:27.697Z,95274
2023-02-23T10:48:35.992Z,95274
2023-02-23T10:49:46.635Z,95273
2023-02-23T10:50:54.322Z,95272
2023-02-23T10:52:04.026Z,95270
2023-02-23T10:53:12.694Z,95269
2023-02-23T10:54:21.349Z,95267
2023-02-23T10:55:31.044Z,95269
2023-02-23T10:56:39.718Z,95269
2023-02-23T10:57:48.409Z,95271
2023-02-23T10:58:58.101Z,95271
2023-02-23T11:00:07.838Z,95272
2023-02-23T11:01:16.920Z,95269
2023-02-23T11:02:25.795Z,95265
2023-02-23T11:03:33.806Z,95270
2023-02-23T11:04:44.549Z,95268
2023-02-23T11:05:52.216Z,95271
2023-02-23T11:07:01.890Z,95267
2023-02-23T11:08:11.613Z,95267
2023-02-23T11:09:24.759Z,95270
2023-02-23T11:10:30.949Z,95263
2023-02-23T11:11:39.833Z,95261
2023-02-23T11:12:48.534Z,95261
2023-02-23T11:13:58.353Z,95265
2023-02-23T11:15:07.891Z,95262
2023-02-23T11:16:16.602Z,95262
2023-02-23T11:17:26.499Z,95267
2023-02-23T11:18:35.979Z,95259
2023-02-23T11:19:43.818Z,95262
2023-02-23T11:20:53.425Z,95259
2023-02-23T11:22:03.068Z,95258
2023-02-23T11:23:14.600Z,95259
2023-02-23T11:24:21.454Z,95253
2023-02-23T11:25:31.134Z,95255
2023-02-23T11:26:40.833Z,95251
2023-02-23T11:27:49.671Z,95251
2023-02-23T11:28:59.386Z,95250
2023-02-23T11:30:09.088Z,95248
2023-02-23T11:31:19.075Z,95248
2023-02-23T11:32:28.599Z,95249
2023-02-23T11:33:37.209Z,95249
2023-02-23T11:34:47.003Z,95244
2023-02-23T11:35:56.730Z,95245
2023-02-23T11:37:05.738Z,95246
2023-02-23T11:38:14.999Z,95243
2023-02-23T11:39:24.845Z,95239
2023-02-23T11:40:33.621Z,95237
2023-02-23T11:41:43.305Z,95239
2023-02-23T11:42:50.971Z,95240
2023-02-23T11:43:59.660Z,95240
2023-02-23T11:45:09.380Z,95242
2023-02-23T11:46:18.589Z,95238
2023-02-23T11:47:26.773Z,95233
2023-02-23T11:48:36.451Z,95230
2023-02-23T11:49:45.168Z,95226
2023-02-23T11:50:54.893Z,95230
2023-02-23T11:52:02.605Z,95231
2023-02-23T11:53:12.319Z,95220
2023-02-23T11:54:22.007Z,95227
2023-02-23T11:55:29.659Z,95226
2023-02-23T11:56:37.317Z,95229
2023-02-23T11:57:46.974Z,95226
2023-02-23T11:58:55.766Z,95224
2023-02-23T12:00:05.392Z,95215
2023-02-23T12:01:13.060Z,95215
2023-02-23T12:02:21.902Z,95211
2023-02-23T12:03:31.497Z,95217
2023-02-23T12:04:47.398Z,95217
2023-02-23T12:05:55.885Z,95218
2023-02-23T12:07:05.538Z,95218
2023-02-23T12:08:12.222Z,95218
2023-02-23T12:09:20.844Z,95216
2023-02-23T12:10:30.536Z,95216
2023-02-23T12:11:40.178Z,95214
2023-02-23T12:12:49.832Z,95213
2023-02-23T12:13:58.510Z,95210
2023-02-23T12:15:07.156Z,95210
2023-02-23T12:16:16.998Z,95208
2023-02-23T12:17:26.517Z,95210
2023-02-23T12:18:36.191Z,95207
2023-02-23T12:19:45.841Z,95203
2023-02-23T12:20:54.516Z,95201
2023-02-23T12:22:03.172Z,95207
2023-02-23T12:23:11.840Z,95203
2023-02-23T12:24:20.497Z,95198
2023-02-23T12:25:30.172Z,95202
2023-02-23T12:26:38.836Z,95196
2023-02-23T12:27:48.591Z,95197
2023-02-23T12:28:58.239Z,95195
2023-02-23T12:30:08.730Z,95197
2023-02-23T12:31:15.589Z,95193
2023-02-23T12:32:25.316Z,95194
2023-02-23T12:33:34.097Z,95192
2023-02-23T12:34:43.562Z,95194
2023-02-23T12:35:51.241Z,95190
2023-02-23T12:36:59.885Z,95189
2023-02-23T12:38:08.568Z,95190
2023-02-23T12:39:16.207Z,95189
2023-02-23T12:40:25.890Z,95192
2023-02-23T12:41:34.608Z,95186
2023-02-23T12:42:44.262Z,95191
2023-02-23T12:43:52.955Z,95191
2023-02-23T12:45:02.608Z,95192
2023-02-23T12:46:12.490Z,95192
2023-02-23T12:47:22.064Z,95190
2023-02-23T12:48:30.807Z,95187
2023-02-23T12:49:40.586Z,95184
2023-02-23T12:50:50.317Z,95185
2023-02-23T12:52:00.056Z,95180
2023-02-23T12:53:08.848Z,95190
2023-02-23T12:54:18.601Z,95185
2023-02-23T12:55:28.355Z,95183
2023-02-23T12:56:36.098Z,95186
2023-02-23T12:57:44.849Z,95183
2023-02-23T12:58:54.660Z,95182
2023-02-23T13:00:02.369Z,95185
2023-02-23T13:01:12.211Z,95183
2023-02-23T13:02:21.881Z,95183
2023-02-23T13:03:30.624Z,95178
2023-02-23T13:04:40.384Z,95180
2023-02-23T13:05:49.163Z,95174
2023-02-23T13:06:57.869Z,95177
2023-02-23T13:08:13.537Z,95175
2023-02-23T13:09:18.394Z,95176
2023-02-23T13:10:28.215Z,95175
2023-02-23T13:11:35.938Z,95175
2023-02-23T13:12:45.690Z,95176
2023-02-23T13:13:55.454Z,95170
2023-02-23T13:15:05.176Z,95174
2023-02-23T13:16:14.072Z,95168
2023-02-23T13:17:23.728Z,95174
2023-02-23T13:18:31.518Z,95170
2023-02-23T13:19:40.228Z,95168
2023-02-23T13:20:48.948Z,95174
2023-02-23T13:21:57.652Z,95170
2023-02-23T13:23:07.354Z,95170
2023-02-23T13:24:15.023Z,95178
2023-02-23T13:25:23.711Z,95177
2023-02-23T13:26:33.415Z,95174
2023-02-23T13:27:43.069Z,95174
2023-02-23T13:28:51.743Z,95177
2023-02-23T13:30:01.430Z,95175
2023-02-23T13:31:10.269Z,95169
2023-02-23T13:32:19.921Z,95177
2023-02-23T13:33:38.386Z,95170
2023-02-23T13:34:38.136Z,95170
2023-02-23T13:35:47.832Z,95171
2023-02-23T13:36:55.451Z,95170
2023-02-23T13:38:04.144Z,95170
2023-02-23T13:39:18.917Z,95171
2023-02-23T13:40:23.449Z,95171
2023-02-23T13:41:33.127Z,95169
2023-02-23T13:42:40.764Z,95168
2023-02-23T13:43:49.451Z,95173
2023-02-23T13:44:59.113Z,95172
2023-02-23T13:46:06.843Z,95172
2023-02-23T13:47:16.439Z,95173
2023-02-23T13:48:25.100Z,95170
2023-02-23T13:49:34.778Z,95173
2023-02-23T13:50:44.473Z,95168
2023-02-23T13:51:53.152Z,95170
2023-02-23T13:53:01.856Z,95171
2023-02-23T13:54:11.573Z,95171
2023-02-23T13:55:21.197Z,95170
2023-02-23T13:56:30.845Z,95174
2023-02-23T13:57:39.498Z,95177
2023-02-23T13:58:48.196Z,95169
2023-02-23T13:59:56.848Z,95168
2023-02-23T14:01:06.522Z,95165
2023-02-23T14:02:16.427Z,95161
2023-02-23T14:03:25.839Z,95160
2023-02-23T14:04:34.454Z,95161
2023-02-23T14:05:43.157Z,95163
2023-02-23T14:06:52.818Z,95157
2023-02-23T14:08:01.472Z,95165
2023-02-23T14:09:11.144Z,95163
2023-02-23T14:10:17.884Z,95161
2023-02-23T14:11:26.436Z,95165
2023-02-23T14:12:36.101Z,95164
2023-02-23T14:13:44.726Z,95161
2023-02-23T14:14:55.409Z,95167
2023-02-23T14:16:05.116Z,95165
2023-02-23T14:17:13.766Z,95165
2023-02-23T14:18:23.431Z,95161
2023-02-23T14:19:32.139Z,95165
2023-02-23T14:20:41.812Z,95161
2023-02-23T14:21:51.521Z,95168
2023-02-23T14:23:01.169Z,95162
2023-02-23T14:24:09.850Z,95160
2023-02-23T14:25:19.533Z,95161
2023-02-23T14:26:28.208Z,95165
2023-02-23T14:27:41.656Z,95158
2023-02-23T14:28:47.539Z,95159
2023-02-23T14:29:57.216Z,95157
2023-02-23T14:31:09.238Z,95160
2023-02-23T14:32:16.727Z,95159
2023-02-23T14:33:25.201Z,95155
2023-02-23T14:34:33.877Z,95159
2023-02-23T14:35:42.557Z,95159
2023-02-23T14:36:52.231Z,95156
2023-02-23T14:38:02.007Z,95155
2023-02-23T14:39:10.583Z,95159
2023-02-23T14:40:20.232Z,95151
2023-02-23T14:41:29.964Z,95153
2023-02-23T14:42:39.752Z,95154
2023-02-23T14:43:49.438Z,95151
2023-02-23T14:44:58.128Z,95151
2023-02-23T14:46:06.800Z,95149
2023-02-23T14:47:15.425Z,95146
2023-02-23T14:48:25.091Z,95147
2023-02-23T14:49:33.762Z,95155